sensor_id;sensor_type;location;lat;lon;timestamp;pressure;altitude;pressure_sealevel;temperature;humidity
69302;BME280;56689;47.842;8.974;2024-01-25T00:00:59;97818.22;;;7.37;100.00
69302;BME280;56689;47.842;8.974;2024-01-25T00:03:24;97795.56;;;7.30;100.00
69302;BME280;56689;47.842;8.974;2024-01-25T00:05:50;97782.69;;;7.31;100.00
69302;BME280;56689;47.842;8.974;2024-01-25T00:08:15;97790.78;;;7.40;100.00
69302;BME280;56689;47.842;8.974;2024-01-25T00:10:41;97780.53;;;7.42;100.00
69302;BME280;56689;47.842;8.974;2024-01-25T00:13:07;97797.03;;;7.47;100.00
69302;BME280;56689;47.842;8.974;2024-01-25T00:15:32;97806.09;;;7.58;100.00
69302;BME280;56689;47.842;8.974;2024-01-25T00:17:58;97791.97;;;7.49;100.00
69302;BME280;56689;47.842;8.974;2024-01-25T00:20:23;97808.44;;;7.52;100.00
69302;BME280;56689;47.842;8.974;2024-01-25T00:22:49;97812.41;;;7.43;100.00
69302;BME280;56689;47.842;8.974;2024-01-25T00:25:14;97814.84;;;7.39;100.00
69302;BME280;56689;47.842;8.974;2024-01-25T00:27:40;97810.41;;;7.35;100.00
69302;BME280;56689;47.842;8.974;2024-01-25T00:30:06;97810.66;;;7.42;100.00
69302;BME280;56689;47.842;8.974;2024-01-25T00:32:31;97813.94;;;7.37;100.00
69302;BME280;56689;47.842;8.974;2024-01-25T00:34:57;97814.75;;;7.36;100.00
69302;BME280;56689;47.842;8.974;2024-01-25T00:37:23;97807.59;;;7.29;100.00
69302;BME280;56689;47.842;8.974;2024-01-25T00:39:48;97801.72;;;7.33;100.00
69302;BME280;56689;47.842;8.974;2024-01-25T00:42:21;97798.56;;;7.18;100.00
69302;BME280;56689;47.842;8.974;2024-01-25T00:44:47;97809.53;;;7.12;100.00
69302;BME280;56689;47.842;8.974;2024-01-25T00:47:13;97822.56;;;7.16;100.00
69302;BME280;56689;47.842;8.974;2024-01-25T00:49:39;97814.78;;;7.14;100.00
69302;BME280;56689;47.842;8.974;2024-01-25T00:52:06;97805.72;;;7.03;100.00
69302;BME280;56689;47.842;8.974;2024-01-25T00:54:32;97818.28;;;7.16;100.00
69302;BME280;56689;47.842;8.974;2024-01-25T00:56:58;97800.44;;;7.00;100.00
69302;BME280;56689;47.842;8.974;2024-01-25T00:59:24;97826.78;;;7.13;100.00
69302;BME280;56689;47.842;8.974;2024-01-25T01:01:52;97818.00;;;7.08;100.00
69302;BME280;56689;47.842;8.974;2024-01-25T01:04:18;97814.00;;;7.17;100.00
69302;BME280;56689;47.842;8.974;2024-01-25T01:06:44;97812.41;;;7.20;100.00
69302;BME280;56689;47.842;8.974;2024-01-25T01:09:10;97804.13;;;7.06;100.00
69302;BME280;56689;47.842;8.974;2024-01-25T01:11:36;97810.84;;;7.01;100.00
69302;BME280;56689;47.842;8.974;2024-01-25T01:14:02;97814.69;;;7.12;100.00
69302;BME280;56689;47.842;8.974;2024-01-25T01:16:28;97791.34;;;7.09;100.00
69302;BME280;56689;47.842;8.974;2024-01-25T01:18:58;97785.84;;;7.00;100.00
69302;BME280;56689;47.842;8.974;2024-01-25T01:21:30;97802.22;;;7.01;100.00
69302;BME280;56689;47.842;8.974;2024-01-25T01:23:56;97793.34;;;6.94;100.00
69302;BME280;56689;47.842;8.974;2024-01-25T01:26:21;97790.69;;;6.93;100.00
69302;BME280;56689;47.842;8.974;2024-01-25T01:28:47;97773.03;;;6.81;100.00
69302;BME280;56689;47.842;8.974;2024-01-25T01:31:12;97768.63;;;6.78;100.00
69302;BME280;56689;47.842;8.974;2024-01-25T01:33:39;97794.91;;;6.91;100.00
69302;BME280;56689;47.842;8.974;2024-01-25T01:36:05;97788.63;;;6.84;100.00
69302;BME280;56689;47.842;8.974;2024-01-25T01:38:31;97786.88;;;6.83;100.00
69302;BME280;56689;47.842;8.974;2024-01-25T01:40:56;97785.19;;;6.83;100.00
69302;BME280;56689;47.842;8.974;2024-01-25T01:43:22;97793.25;;;6.93;100.00
69302;BME280;56689;47.842;8.974;2024-01-25T01:45:49;97776.91;;;6.92;100.00
69302;BME280;56689;47.842;8.974;2024-01-25T01:53:23;97756.72;;;7.04;100.00
69302;BME280;56689;47.842;8.974;2024-01-25T01:55:55;97768.44;;;7.19;100.00
69302;BME280;56689;47.842;8.974;2024-01-25T15:37:31;97685.44;;;8.08;100.00
69302;BME280;56689;47.842;8.974;2024-01-25T15:40:40;97739.09;;;8.39;100.00
69302;BME280;56689;47.842;8.974;2024-01-25T16:37:11;97730.50;;;7.89;100.00
69302;BME280;56689;47.842;8.974;2024-01-25T16:39:45;97685.41;;;7.56;100.00
69302;BME280;56689;47.842;8.974;2024-01-25T16:42:18;97672.03;;;7.42;100.00
69302;BME280;56689;47.842;8.974;2024-01-25T16:45:07;97691.81;;;7.42;100.00
69302;BME280;56689;47.842;8.974;2024-01-25T19:49:25;97731.13;;;7.10;100.00
69302;BME280;56689;47.842;8.974;2024-01-25T19:51:55;97706.75;;;7.02;100.00
69302;BME280;56689;47.842;8.974;2024-01-25T19:54:20;97720.91;;;7.13;100.00
69302;BME280;56689;47.842;8.974;2024-01-25T19:56:46;97705.31;;;7.10;100.00
69302;BME280;56689;47.842;8.974;2024-01-25T19:59:11;97719.50;;;7.22;100.00
69302;BME280;56689;47.842;8.974;2024-01-25T20:01:37;97674.97;;;7.05;100.00
69302;BME280;56689;47.842;8.974;2024-01-25T20:04:04;97697.78;;;7.17;100.00
69302;BME280;56689;47.842;8.974;2024-01-25T20:06:30;97712.28;;;7.13;100.00
69302;BME280;56689;47.842;8.974;2024-01-25T20:08:56;97699.22;;;7.08;100.00
69302;BME280;56689;47.842;8.974;2024-01-25T20:11:22;97703.66;;;7.12;100.00
69302;BME280;56689;47.842;8.974;2024-01-25T20:13:47;97705.31;;;7.10;100.00
69302;BME280;56689;47.842;8.974;2024-01-25T20:16:16;97701.69;;;7.05;100.00
69302;BME280;56689;47.842;8.974;2024-01-25T20:18:43;97691.25;;;7.02;100.00
69302;BME280;56689;47.842;8.974;2024-01-25T20:21:08;97703.44;;;7.06;100.00
69302;BME280;56689;47.842;8.974;2024-01-25T20:23:34;97721.03;;;7.17;100.00
69302;BME280;56689;47.842;8.974;2024-01-25T20:25:59;97703.75;;;7.14;100.00
69302;BME280;56689;47.842;8.974;2024-01-25T20:28:25;97709.44;;;7.29;100.00
69302;BME280;56689;47.842;8.974;2024-01-25T20:30:50;97704.94;;;7.24;100.00
69302;BME280;56689;47.842;8.974;2024-01-25T20:33:16;97698.03;;;7.23;100.00
69302;BME280;56689;47.842;8.974;2024-01-25T20:35:45;97683.81;;;7.11;100.00
69302;BME280;56689;47.842;8.974;2024-01-25T20:38:10;97684.75;;;7.13;100.00
69302;BME280;56689;47.842;8.974;2024-01-25T20:40:36;97696.03;;;7.16;100.00
69302;BME280;56689;47.842;8.974;2024-01-25T20:43:01;97712.91;;;7.30;100.00
69302;BME280;56689;47.842;8.974;2024-01-25T20:45:27;97698.25;;;7.06;100.00
69302;BME280;56689;47.842;8.974;2024-01-25T20:47:52;97710.72;;;7.17;100.00
69302;BME280;56689;47.842;8.974;2024-01-25T20:50:20;97679.41;;;7.07;100.00
69302;BME280;56689;47.842;8.974;2024-01-25T20:52:46;97673.53;;;7.13;100.00
69302;BME280;56689;47.842;8.974;2024-01-25T20:55:11;97681.47;;;7.18;100.00
69302;BME280;56689;47.842;8.974;2024-01-25T20:57:37;97675.16;;;7.09;100.00
69302;BME280;56689;47.842;8.974;2024-01-25T21:00:03;97690.88;;;7.16;100.00
69302;BME280;56689;47.842;8.974;2024-01-25T21:02:30;97681.38;;;7.15;100.00
69302;BME280;56689;47.842;8.974;2024-01-25T21:04:55;97660.50;;;7.08;100.00
69302;BME280;56689;47.842;8.974;2024-01-25T21:07:21;97676.31;;;7.18;100.00
69302;BME280;56689;47.842;8.974;2024-01-25T21:09:47;97657.13;;;7.11;100.00
69302;BME280;56689;47.842;8.974;2024-01-25T21:12:13;97657.69;;;7.02;100.00
69302;BME280;56689;47.842;8.974;2024-01-25T21:14:39;97686.47;;;7.13;100.00
69302;BME280;56689;47.842;8.974;2024-01-25T21:17:08;97676.97;;;6.88;100.00
69302;BME280;56689;47.842;8.974;2024-01-25T21:19:37;97699.19;;;7.07;100.00
69302;BME280;56689;47.842;8.974;2024-01-25T21:22:03;97664.31;;;6.96;100.00
69302;BME280;56689;47.842;8.974;2024-01-25T21:24:28;97667.97;;;7.01;100.00
69302;BME280;56689;47.842;8.974;2024-01-25T21:26:54;97683.59;;;7.05;100.00
69302;BME280;56689;47.842;8.974;2024-01-25T21:29:19;97681.34;;;6.91;100.00
69302;BME280;56689;47.842;8.974;2024-01-25T21:31:48;97689.03;;;6.89;100.00
69302;BME280;56689;47.842;8.974;2024-01-25T21:34:14;97684.75;;;6.90;100.00
69302;BME280;56689;47.842;8.974;2024-01-25T21:36:41;97683.22;;;6.95;100.00
69302;BME280;56689;47.842;8.974;2024-01-25T21:39:07;97666.72;;;6.91;100.00
69302;BME280;56689;47.842;8.974;2024-01-25T21:41:32;97673.59;;;6.91;100.00
69302;BME280;56689;47.842;8.974;2024-01-25T21:43:58;97686.63;;;6.94;100.00
69302;BME280;56689;47.842;8.974;2024-01-25T21:46:23;97694.28;;;6.92;100.00
69302;BME280;56689;47.842;8.974;2024-01-25T21:48:49;97715.38;;;7.03;100.00
69302;BME280;56689;47.842;8.974;2024-01-25T21:51:14;97695.41;;;6.99;100.00
69302;BME280;56689;47.842;8.974;2024-01-25T21:53:45;97699.88;;;7.03;100.00
69302;BME280;56689;47.842;8.974;2024-01-25T21:56:14;97706.25;;;7.12;100.00
69302;BME280;56689;47.842;8.974;2024-01-25T21:58:39;97691.91;;;6.97;100.00
69302;BME280;56689;47.842;8.974;2024-01-25T22:01:07;97704.81;;;6.97;100.00
69302;BME280;56689;47.842;8.974;2024-01-25T22:03:35;97725.88;;;7.07;100.00
69302;BME280;56689;47.842;8.974;2024-01-25T22:06:07;97709.97;;;6.97;100.00
69302;BME280;56689;47.842;8.974;2024-01-25T22:08:38;97712.00;;;7.05;100.00
69302;BME280;56689;47.842;8.974;2024-01-25T22:11:03;97719.88;;;7.08;100.00
69302;BME280;56689;47.842;8.974;2024-01-25T22:13:32;97694.19;;;6.89;100.00
69302;BME280;56689;47.842;8.974;2024-01-25T22:15:57;97704.84;;;6.98;100.00
69302;BME280;56689;47.842;8.974;2024-01-25T22:18:23;97697.84;;;6.94;100.00
69302;BME280;56689;47.842;8.974;2024-01-25T22:20:48;97712.53;;;6.97;100.00
69302;BME280;56689;47.842;8.974;2024-01-25T22:23:13;97677.56;;;6.81;100.00
69302;BME280;56689;47.842;8.974;2024-01-25T22:25:39;97681.09;;;6.84;100.00
69302;BME280;56689;47.842;8.974;2024-01-25T22:28:04;97664.59;;;6.79;100.00
69302;BME280;56689;47.842;8.974;2024-01-25T22:30:30;97671.66;;;6.85;100.00
69302;BME280;56689;47.842;8.974;2024-01-25T22:32:55;97691.91;;;6.97;100.00
69302;BME280;56689;47.842;8.974;2024-01-25T22:35:21;97669.81;;;6.81;100.00
69302;BME280;56689;47.842;8.974;2024-01-25T22:37:46;97657.50;;;6.74;100.00
69302;BME280;56689;47.842;8.974;2024-01-25T22:40:12;97659.22;;;6.73;100.00
69302;BME280;56689;47.842;8.974;2024-01-25T22:42:40;97686.50;;;6.91;100.00
69302;BME280;56689;47.842;8.974;2024-01-25T22:45:06;97692.81;;;6.99;100.00
69302;BME280;56689;47.842;8.974;2024-01-25T22:47:32;97661.63;;;6.93;100.00
69302;BME280;56689;47.842;8.974;2024-01-25T22:49:57;97666.19;;;7.00;100.00
69302;BME280;56689;47.842;8.974;2024-01-25T22:52:22;97663.28;;;6.91;100.00
69302;BME280;56689;47.842;8.974;2024-01-25T22:54:48;97688.72;;;7.04;100.00
69302;BME280;56689;47.842;8.974;2024-01-25T22:57:13;97664.00;;;6.87;100.00
69302;BME280;56689;47.842;8.974;2024-01-25T22:59:39;97681.75;;;7.01;100.00
69302;BME280;56689;47.842;8.974;2024-01-25T23:02:04;97676.31;;;6.94;100.00
69302;BME280;56689;47.842;8.974;2024-01-25T23:04:30;97667.47;;;6.87;100.00
69302;BME280;56689;47.842;8.974;2024-01-25T23:06:55;97700.75;;;7.03;100.00
69302;BME280;56689;47.842;8.974;2024-01-25T23:09:24;97680.50;;;6.92;100.00
69302;BME280;56689;47.842;8.974;2024-01-25T23:11:49;97680.41;;;6.89;100.00
69302;BME280;56689;47.842;8.974;2024-01-25T23:14:15;97689.88;;;6.88;100.00
69302;BME280;56689;47.842;8.974;2024-01-25T23:16:43;97696.81;;;6.91;100.00
69302;BME280;56689;47.842;8.974;2024-01-25T23:19:11;97677.66;;;6.84;100.00
69302;BME280;56689;47.842;8.974;2024-01-25T23:21:37;97691.72;;;6.92;100.00
69302;BME280;56689;47.842;8.974;2024-01-25T23:24:03;97695.84;;;6.87;100.00
69302;BME280;56689;47.842;8.974;2024-01-25T23:26:31;97690.47;;;6.81;100.00
69302;BME280;56689;47.842;8.974;2024-01-25T23:28:56;97716.00;;;6.97;100.00
69302;BME280;56689;47.842;8.974;2024-01-25T23:31:22;97692.41;;;6.87;100.00
69302;BME280;56689;47.842;8.974;2024-01-25T23:33:47;97689.03;;;6.89;100.00
69302;BME280;56689;47.842;8.974;2024-01-25T23:36:16;97688.34;;;6.93;100.00
69302;BME280;56689;47.842;8.974;2024-01-25T23:38:41;97675.25;;;6.89;100.00
69302;BME280;56689;47.842;8.974;2024-01-25T23:41:12;97694.53;;;6.98;100.00
69302;BME280;56689;47.842;8.974;2024-01-25T23:43:37;97698.06;;;7.00;100.00
69302;BME280;56689;47.842;8.974;2024-01-25T23:46:03;97705.22;;;7.07;100.00
69302;BME280;56689;47.842;8.974;2024-01-25T23:48:28;97698.41;;;7.09;100.00
69302;BME280;56689;47.842;8.974;2024-01-25T23:50:54;97699.69;;;6.98;100.00
69302;BME280;56689;47.842;8.974;2024-01-25T23:53:20;97701.56;;;7.02;100.00
69302;BME280;56689;47.842;8.974;2024-01-25T23:55:48;97668.38;;;6.89;100.00
69302;BME280;56689;47.842;8.974;2024-01-25T23:58:14;97673.56;;;6.89;100.00
